Time;durP1;ratioP1;P1;durP2;ratioP2;P2;SDS_P1;SDS_P2;PMS_P1;PMS_P2;Temp;Humidity;BMP_temperature;BMP_pressure;BME280_temperature;BME280_humidity;BME280_pressure;Samples;Min_cycle;Max_cycle;Signal;HPM_P1;HPM_P2
2023/07/05 00:01:46;;;;;;;2.38;1.60;;;22.90;63.40;;;;;;5022105;28;20342;-69
2023/07/05 00:04:12;;;;;;;2.40;1.63;;;22.90;63.40;;;;;;5005090;28;20180;-69
2023/07/05 00:06:37;;;;;;;1.70;1.50;;;22.90;63.40;;;;;;5021495;28;20192;-69
2023/07/05 00:09:03;;;;;;;1.70;1.52;;;22.90;63.50;;;;;;5021737;28;20196;-68
2023/07/05 00:11:29;;;;;;;1.60;1.50;;;22.90;63.40;;;;;;5028922;28;20753;-68
2023/07/05 00:13:54;;;;;;;2.22;1.65;;;22.90;63.50;;;;;;5016067;28;20223;-69
2023/07/05 00:16:21;;;;;;;1.80;1.70;;;22.90;63.50;;;;;;5021286;28;20807;-68
2023/07/05 00:18:47;;;;;;;1.85;1.75;;;22.90;63.50;;;;;;5019399;28;20183;-70
2023/07/05 00:21:13;;;;;;;1.60;1.50;;;22.90;63.60;;;;;;5014494;28;20262;-69
2023/07/05 00:23:45;;;;;;;1.80;1.70;;;22.90;63.60;;;;;;5012933;28;20615;-69
2023/07/05 00:26:11;;;;;;;1.63;1.52;;;22.90;63.50;;;;;;5012941;28;20568;-69
2023/07/05 00:28:37;;;;;;;1.58;1.48;;;22.90;63.60;;;;;;5012965;28;20184;-69
2023/07/05 00:31:04;;;;;;;1.77;1.67;;;22.90;63.50;;;;;;5022239;28;20208;-68
2023/07/05 00:33:31;;;;;;;1.98;1.50;;;22.90;63.50;;;;;;5020888;28;20184;-69
2023/07/05 00:35:57;;;;;;;1.40;1.30;;;22.90;63.50;;;;;;5012981;28;20570;-69
2023/07/05 00:38:23;;;;;;;1.83;1.60;;;22.90;63.50;;;;;;5021144;28;20288;-69
2023/07/05 00:40:51;;;;;;;1.60;1.50;;;22.90;63.50;;;;;;5019572;28;20211;-69
2023/07/05 00:43:19;;;;;;;1.33;1.23;;;22.90;63.50;;;;;;4997486;28;20184;-69
2023/07/05 00:45:56;;;;;;;1.75;1.50;;;22.90;63.50;;;;;;5018369;28;20187;-69
2023/07/05 00:48:56;;;;;;;1.67;1.45;;;22.90;63.50;;;;;;5014166;28;20184;-69
2023/07/05 00:52:09;;;;;;;2.13;1.55;;;22.90;63.60;;;;;;5022000;28;20254;-70
2023/07/05 00:54:44;;;;;;;1.73;1.63;;;22.90;63.60;;;;;;4971135;28;20290;-69
2023/07/05 00:57:39;;;;;;;1.60;1.50;;;22.90;63.60;;;;;;5014447;28;20227;-69
2023/07/05 01:00:15;;;;;;;1.50;1.40;;;22.90;63.60;;;;;;5018088;28;20224;-69
2023/07/05 01:02:49;;;;;;;1.40;1.30;;;22.90;63.60;;;;;;4996046;28;20184;-69
2023/07/05 01:05:17;;;;;;;1.60;1.50;;;22.90;63.60;;;;;;5030055;28;20274;-69
2023/07/05 01:07:44;;;;;;;1.60;1.50;;;22.90;63.60;;;;;;5028979;28;20254;-69
2023/07/05 01:10:18;;;;;;;1.67;1.58;;;22.90;63.60;;;;;;5011990;28;20250;-69
2023/07/05 01:12:49;;;;;;;1.80;1.58;;;22.90;63.60;;;;;;5003922;28;20184;-69
2023/07/05 01:15:28;;;;;;;1.60;1.45;;;22.90;63.60;;;;;;5011859;28;20231;-69
2023/07/05 01:18:24;;;;;;;1.60;1.50;;;22.90;63.60;;;;;;5012360;28;20283;-69
2023/07/05 01:21:11;;;;;;;1.38;1.27;;;22.80;63.60;;;;;;5015560;28;20299;-69
2023/07/05 01:24:14;;;;;;;1.40;1.30;;;22.90;63.70;;;;;;5011872;28;20184;-69
2023/07/05 01:27:23;;;;;;;1.98;1.50;;;22.90;63.80;;;;;;5012011;28;20186;-68
2023/07/05 01:30:39;;;;;;;1.50;1.40;;;22.80;63.70;;;;;;5012016;28;20192;-69
2023/07/05 01:33:20;;;;;;;1.50;1.40;;;22.80;63.70;;;;;;4992703;28;20192;-71
2023/07/05 01:35:52;;;;;;;2.65;1.60;;;22.80;63.90;;;;;;5020308;28;20203;-69
2023/07/05 01:38:17;;;;;;;1.50;1.40;;;22.80;63.80;;;;;;5022265;28;20180;-69
2023/07/05 01:40:55;;;;;;;1.50;1.40;;;22.90;64.00;;;;;;5017325;28;20718;-69
2023/07/05 01:43:26;;;;;;;1.50;1.40;;;22.80;63.80;;;;;;5011402;28;20278;-69
2023/07/05 01:46:22;;;;;;;1.40;1.30;;;22.80;63.90;;;;;;5019666;28;20731;-69
2023/07/05 01:49:06;;;;;;;1.40;1.30;;;22.90;64.00;;;;;;5009913;28;20295;-68
2023/07/05 01:51:50;;;;;;;1.42;1.33;;;22.80;63.90;;;;;;5043646;28;20204;-69
2023/07/05 01:54:27;;;;;;;1.73;1.63;;;22.80;63.90;;;;;;5011363;28;20204;-69
2023/07/05 01:56:59;;;;;;;1.50;1.40;;;22.80;63.90;;;;;;5011402;28;20262;-69
2023/07/05 01:59:43;;;;;;;1.67;1.58;;;22.80;63.90;;;;;;4995516;28;20176;-70
2023/07/05 02:02:14;;;;;;;1.45;1.35;;;22.80;63.90;;;;;;5012416;28;20180;-69
2023/07/05 02:04:42;;;;;;;1.50;1.40;;;22.80;63.90;;;;;;5017874;28;20180;-69
2023/07/05 02:07:07;;;;;;;2.45;1.40;;;22.80;63.90;;;;;;5011295;28;20191;-69
2023/07/05 02:09:38;;;;;;;1.48;1.38;;;22.80;63.90;;;;;;5011419;28;20192;-69
2023/07/05 02:12:06;;;;;;;1.50;1.40;;;22.80;63.90;;;;;;5027621;28;20235;-69
2023/07/05 02:14:32;;;;;;;1.50;1.40;;;22.80;63.90;;;;;;5002952;28;20199;-69
2023/07/05 02:16:58;;;;;;;2.65;1.58;;;22.80;63.80;;;;;;5011334;28;20211;-69
2023/07/05 02:19:24;;;;;;;1.38;1.23;;;22.80;63.90;;;;;;5009722;28;20196;-69
2023/07/05 02:21:50;;;;;;;1.50;1.40;;;22.80;63.90;;;;;;5002736;28;20231;-70
2023/07/05 02:24:16;;;;;;;1.33;1.23;;;22.80;63.90;;;;;;5035863;28;20183;-69
2023/07/05 02:26:42;;;;;;;1.40;1.30;;;22.80;63.90;;;;;;5011362;28;20263;-69
2023/07/05 02:29:08;;;;;;;1.52;1.23;;;22.80;63.90;;;;;;4994899;28;20188;-69
2023/07/05 02:31:35;;;;;;;1.60;1.50;;;22.80;63.90;;;;;;5011024;28;20223;-69
2023/07/05 02:34:01;;;;;;;1.83;1.63;;;22.80;63.90;;;;;;4994547;28;20211;-69
2023/07/05 02:36:26;;;;;;;1.63;1.40;;;22.80;63.90;;;;;;5014392;28;20203;-69
2023/07/05 02:38:54;;;;;;;1.42;1.33;;;22.80;63.90;;;;;;5030634;28;20274;-69
2023/07/05 02:41:20;;;;;;;1.52;1.38;;;22.80;63.90;;;;;;5011513;28;20208;-70
2023/07/05 02:43:46;;;;;;;1.67;1.50;;;22.80;63.90;;;;;;5000782;28;20175;-69
2023/07/05 02:46:13;;;;;;;1.20;1.10;;;22.80;63.90;;;;;;5012465;28;20271;-69
2023/07/05 02:48:39;;;;;;;2.08;1.73;;;22.80;63.90;;;;;;5011172;28;20275;-69
2023/07/05 02:51:05;;;;;;;1.60;1.40;;;22.80;63.90;;;;;;4994322;28;20211;-70
2023/07/05 02:53:30;;;;;;;1.25;1.15;;;22.80;63.90;;;;;;5036198;28;20200;-69
2023/07/05 02:55:56;;;;;;;1.40;1.30;;;22.80;63.90;;;;;;5044167;28;20270;-69
2023/07/05 02:58:22;;;;;;;1.40;1.30;;;22.80;63.90;;;;;;5028086;28;20217;-69
2023/07/05 03:00:49;;;;;;;1.63;1.52;;;22.70;63.80;;;;;;5010977;28;20215;-69
2023/07/05 03:03:14;;;;;;;1.40;1.30;;;22.70;63.80;;;;;;5033567;28;20184;-68
2023/07/05 03:05:40;;;;;;;1.55;1.40;;;22.80;63.90;;;;;;5010885;28;20715;-69
2023/07/05 03:08:06;;;;;;;1.33;1.23;;;22.80;63.90;;;;;;5010917;28;20230;-69
2023/07/05 03:10:38;;;;;;;1.48;1.38;;;22.80;63.90;;;;;;5011028;28;20232;-68
2023/07/05 03:13:04;;;;;;;1.48;1.38;;;22.80;63.90;;;;;;5010749;28;20203;-69
2023/07/05 03:15:30;;;;;;;1.42;1.33;;;22.70;63.80;;;;;;5010982;28;20212;-69
2023/07/05 03:17:56;;;;;;;1.33;1.23;;;22.80;64.00;;;;;;5010576;28;20185;-69
2023/07/05 03:20:21;;;;;;;1.65;1.55;;;22.70;63.90;;;;;;5010511;28;20266;-70
2023/07/05 03:22:47;;;;;;;2.10;1.80;;;22.80;64.10;;;;;;4994637;28;20188;-69
2023/07/05 03:25:13;;;;;;;1.33;1.23;;;22.70;63.90;;;;;;5010485;28;20193;-69
2023/07/05 03:27:39;;;;;;;1.30;1.20;;;22.80;64.10;;;;;;5012147;28;20193;-69
2023/07/05 03:30:05;;;;;;;1.50;1.40;;;22.80;64.10;;;;;;5010957;28;20177;-69
2023/07/05 03:32:31;;;;;;;1.50;1.38;;;22.80;64.10;;;;;;5038793;28;20180;-69
2023/07/05 03:34:59;;;;;;;1.42;1.33;;;22.70;64.00;;;;;;5046869;28;20184;-69
2023/07/05 03:37:28;;;;;;;1.35;1.25;;;22.80;64.20;;;;;;5005525;28;20222;-69
2023/07/05 03:39:54;;;;;;;1.85;1.40;;;22.80;64.20;;;;;;5013885;28;20184;-70
2023/07/05 03:42:20;;;;;;;1.35;1.25;;;22.80;65.00;;;;;;5029846;28;20185;-69
2023/07/05 03:44:45;;;;;;;1.40;1.25;;;22.80;64.30;;;;;;5036035;28;20201;-69
2023/07/05 03:47:11;;;;;;;1.42;1.33;;;22.70;64.10;;;;;;5016463;28;20188;-69
2023/07/05 03:49:37;;;;;;;1.42;1.33;;;22.70;64.20;;;;;;5015348;28;20587;-69
2023/07/05 03:52:03;;;;;;;1.30;1.20;;;22.70;64.20;;;;;;5013832;28;20211;-70
2023/07/05 03:54:29;;;;;;;1.40;1.25;;;22.70;64.20;;;;;;4997269;28;20226;-69
2023/07/05 03:56:54;;;;;;;1.33;1.20;;;22.70;64.20;;;;;;5015079;28;20211;-72
2023/07/05 03:59:20;;;;;;;1.75;1.45;;;22.70;64.20;;;;;;5013083;28;20191;-69
2023/07/05 04:01:46;;;;;;;1.30;1.20;;;22.70;64.20;;;;;;5030344;28;20218;-69
2023/07/05 04:04:11;;;;;;;1.63;1.40;;;22.70;64.20;;;;;;5013838;28;20180;-69
2023/07/05 04:06:37;;;;;;;1.55;1.45;;;22.70;64.20;;;;;;5013589;28;20187;-70
2023/07/05 04:09:03;;;;;;;1.23;1.13;;;22.70;64.30;;;;;;5029996;28;20200;-69
2023/07/05 04:11:29;;;;;;;1.35;1.25;;;22.70;64.30;;;;;;5013941;28;20245;-69
2023/07/05 04:13:56;;;;;;;1.50;1.40;;;22.70;64.30;;;;;;4997236;28;20234;-67
2023/07/05 04:16:25;;;;;;;1.73;1.48;;;22.70;64.30;;;;;;5013076;28;20219;-69
2023/07/05 04:18:54;;;;;;;1.85;1.38;;;22.70;64.40;;;;;;5021259;28;20246;-69
2023/07/05 04:21:21;;;;;;;1.35;1.25;;;22.70;64.30;;;;;;5022541;28;20269;-69
2023/07/05 04:23:46;;;;;;;1.20;1.10;;;22.70;64.40;;;;;;5013224;28;20176;-69
2023/07/05 04:26:25;;;;;;;1.48;1.38;;;22.70;64.30;;;;;;5013061;28;20540;-69
2023/07/05 04:28:50;;;;;;;0.95;0.95;;;22.70;64.40;;;;;;5013360;28;20232;-69
2023/07/05 04:31:29;;;;;;;1.30;1.20;;;22.70;64.40;;;;;;5012856;28;20243;-68
2023/07/05 04:34:00;;;;;;;1.83;1.30;;;22.70;64.50;;;;;;5013332;28;20633;-69
2023/07/05 04:36:26;;;;;;;1.35;1.25;;;22.70;64.50;;;;;;5020975;28;20204;-69
2023/07/05 04:38:52;;;;;;;1.38;1.20;;;22.70;64.50;;;;;;5021077;28;20314;-68
2023/07/05 04:41:17;;;;;;;1.23;1.13;;;22.70;64.50;;;;;;4998382;28;20294;-68
2023/07/05 04:43:43;;;;;;;1.33;1.25;;;22.70;64.60;;;;;;5019550;28;20254;-69
2023/07/05 04:46:09;;;;;;;1.30;1.20;;;22.70;64.70;;;;;;5012550;28;20239;-68
2023/07/05 04:48:35;;;;;;;1.20;1.10;;;22.70;64.50;;;;;;5012710;28;20188;-70
2023/07/05 04:51:00;;;;;;;2.78;1.38;;;22.70;64.60;;;;;;5012697;28;20630;-69
2023/07/05 04:53:28;;;;;;;1.20;1.20;;;22.70;64.70;;;;;;5036759;28;20208;-69
2023/07/05 04:55:57;;;;;;;1.10;1.10;;;22.70;64.60;;;;;;5012605;28;20373;-69
2023/07/05 04:58:24;;;;;;;1.25;1.15;;;22.70;64.70;;;;;;5012761;28;20195;-68
2023/07/05 05:00:51;;;;;;;0.93;0.93;;;22.70;64.70;;;;;;5012456;28;20200;-69
2023/07/05 05:03:22;;;;;;;1.23;1.13;;;22.70;64.80;;;;;;4996230;28;20184;-69
2023/07/05 05:05:54;;;;;;;1.13;1.02;;;22.70;64.80;;;;;;5012433;28;20199;-69
2023/07/05 05:08:22;;;;;;;1.77;1.20;;;22.70;64.90;;;;;;5012013;28;20198;-68
2023/07/05 05:10:54;;;;;;;1.00;1.00;;;22.70;64.90;;;;;;4996298;28;20195;-69
2023/07/05 05:13:22;;;;;;;1.25;1.15;;;22.70;64.90;;;;;;5013330;28;20184;-69
2023/07/05 05:15:48;;;;;;;1.25;1.15;;;22.70;64.90;;;;;;5012079;28;20242;-69
2023/07/05 05:18:15;;;;;;;1.25;1.10;;;22.70;64.90;;;;;;5012324;28;20188;-66
2023/07/05 05:20:41;;;;;;;1.20;1.10;;;22.70;65.00;;;;;;5012570;28;20212;-70
2023/07/05 05:23:07;;;;;;;0.95;0.95;;;22.70;65.00;;;;;;5012092;28;20176;-67
2023/07/05 05:25:33;;;;;;;1.30;1.20;;;22.70;65.00;;;;;;5012402;28;20192;-69
2023/07/05 05:27:59;;;;;;;1.65;1.00;;;22.70;64.90;;;;;;5012381;28;20192;-69
2023/07/05 05:30:25;;;;;;;2.15;1.08;;;22.70;64.90;;;;;;5011846;28;20303;-69
2023/07/05 05:32:51;;;;;;;1.98;1.20;;;22.70;64.90;;;;;;5010374;28;20192;-69
2023/07/05 05:35:17;;;;;;;1.13;1.10;;;22.70;64.90;;;;;;5014759;28;20203;-69
2023/07/05 05:37:44;;;;;;;2.00;1.23;;;22.70;64.90;;;;;;5001247;28;20226;-68
2023/07/05 05:40:11;;;;;;;1.30;1.20;;;22.70;64.90;;;;;;5020715;28;20211;-69
2023/07/05 05:42:37;;;;;;;1.30;1.17;;;22.70;65.00;;;;;;5019955;28;20180;-69
2023/07/05 05:45:04;;;;;;;1.75;1.30;;;22.70;65.00;;;;;;5020008;28;20190;-69
2023/07/05 05:47:30;;;;;;;1.30;1.20;;;22.70;65.00;;;;;;5011796;28;20181;-69
2023/07/05 05:49:56;;;;;;;1.33;1.23;;;22.70;65.00;;;;;;5026836;28;20677;-68
2023/07/05 05:52:22;;;;;;;2.50;1.27;;;22.70;65.00;;;;;;5024733;28;20187;-69
2023/07/05 05:54:47;;;;;;;1.40;1.10;;;22.70;65.00;;;;;;5027241;28;20198;-68
2023/07/05 05:57:13;;;;;;;1.40;1.30;;;22.70;65.00;;;;;;5011168;28;20219;-69
2023/07/05 05:59:39;;;;;;;1.30;1.13;;;22.70;65.00;;;;;;5019351;28;20180;-69
2023/07/05 06:02:05;;;;;;;1.30;1.20;;;22.70;65.00;;;;;;5011093;28;20342;-69
2023/07/05 06:04:31;;;;;;;1.30;1.20;;;22.70;65.10;;;;;;5011003;28;20266;-69
2023/07/05 06:06:57;;;;;;;1.33;1.13;;;22.70;65.00;;;;;;5012741;28;20188;-69
2023/07/05 06:09:24;;;;;;;1.17;1.08;;;22.80;65.30;;;;;;5011135;28;20230;-69
2023/07/05 06:11:50;;;;;;;1.80;1.17;;;22.70;65.20;;;;;;4995001;28;20216;-69
2023/07/05 06:14:16;;;;;;;1.30;1.20;;;22.70;65.20;;;;;;5019068;28;20253;-70
2023/07/05 06:16:42;;;;;;;1.20;1.10;;;22.70;65.10;;;;;;5011161;28;20212;-68
2023/07/05 06:19:08;;;;;;;2.17;1.30;;;22.70;65.20;;;;;;5002783;28;20190;-68
2023/07/05 06:21:34;;;;;;;1.55;1.45;;;22.70;65.20;;;;;;5012612;28;20211;-68
2023/07/05 06:24:00;;;;;;;1.00;1.00;;;22.70;65.30;;;;;;4994671;28;20192;-68
2023/07/05 06:26:25;;;;;;;1.40;1.23;;;22.70;65.30;;;;;;5012062;28;20202;-69
2023/07/05 06:28:51;;;;;;;1.00;1.00;;;22.70;65.30;;;;;;5010919;28;20191;-69
2023/07/05 06:31:18;;;;;;;1.15;1.05;;;22.70;65.40;;;;;;5018995;28;20257;-70
2023/07/05 06:33:44;;;;;;;1.10;1.00;;;22.80;65.50;;;;;;5011076;28;20184;-69
2023/07/05 06:36:10;;;;;;;1.55;1.10;;;22.70;65.40;;;;;;5010859;28;20211;-69
2023/07/05 06:38:37;;;;;;;1.42;1.05;;;22.80;65.40;;;;;;5010923;28;20206;-69
2023/07/05 06:41:03;;;;;;;1.40;1.30;;;22.80;65.40;;;;;;5011015;28;20695;-69
2023/07/05 06:43:29;;;;;;;1.05;1.00;;;22.80;65.60;;;;;;5010714;28;20176;-68
2023/07/05 06:45:56;;;;;;;1.10;1.10;;;22.80;65.70;;;;;;5042374;28;20199;-69
2023/07/05 06:48:23;;;;;;;1.00;1.00;;;22.80;65.80;;;;;;5012067;28;20186;-69
2023/07/05 06:50:54;;;;;;;1.55;1.40;;;22.80;65.70;;;;;;5010930;28;20216;-69
2023/07/05 06:53:21;;;;;;;1.25;1.10;;;22.80;65.70;;;;;;5027093;28;20207;-69
2023/07/05 06:55:49;;;;;;;1.38;1.27;;;22.80;65.70;;;;;;5010839;28;20204;-69
2023/07/05 06:58:19;;;;;;;1.48;1.30;;;22.80;65.80;;;;;;5010609;28;20192;-69
2023/07/05 07:00:47;;;;;;;1.38;1.05;;;22.80;66.90;;;;;;4999391;28;20706;-69
2023/07/05 07:03:13;;;;;;;1.25;1.15;;;22.80;65.80;;;;;;5013425;28;20275;-69
2023/07/05 07:05:39;;;;;;;1.48;1.38;;;22.80;65.80;;;;;;5021973;28;20275;-69
2023/07/05 07:08:05;;;;;;;1.20;1.00;;;22.80;65.70;;;;;;5015869;28;20357;-69
2023/07/05 07:10:34;;;;;;;1.42;1.33;;;22.80;65.90;;;;;;5014277;28;20208;-69
2023/07/05 07:12:59;;;;;;;1.05;0.95;;;22.80;66.00;;;;;;5015496;28;20192;-69
2023/07/05 07:15:25;;;;;;;1.38;1.27;;;22.80;66.00;;;;;;5014152;28;20203;-69
2023/07/05 07:17:51;;;;;;;1.55;1.23;;;22.80;65.90;;;;;;5028173;28;20228;-69
2023/07/05 07:20:17;;;;;;;1.45;1.33;;;22.80;66.10;;;;;;5016379;28;20230;-69
2023/07/05 07:22:44;;;;;;;1.52;1.30;;;22.80;66.10;;;;;;5014153;28;20176;-69
2023/07/05 07:25:10;;;;;;;1.20;1.10;;;22.80;66.10;;;;;;5013987;28;20212;-69
2023/07/05 07:27:35;;;;;;;1.23;1.00;;;22.80;66.00;;;;;;5014372;28;20286;-69
2023/07/05 07:30:02;;;;;;;1.08;1.00;;;22.80;66.10;;;;;;5014109;28;20196;-70
2023/07/05 07:32:28;;;;;;;1.35;1.10;;;22.80;66.10;;;;;;5013996;28;20207;-69
2023/07/05 07:34:55;;;;;;;1.25;1.15;;;22.80;66.10;;;;;;5015176;28;20188;-69
2023/07/05 07:37:21;;;;;;;1.98;1.20;;;22.90;66.30;;;;;;5013855;28;20216;-69
2023/07/05 07:39:47;;;;;;;1.42;1.33;;;22.90;66.20;;;;;;5001263;28;20180;-69
2023/07/05 07:42:13;;;;;;;1.38;1.30;;;22.90;66.30;;;;;;5013863;28;20185;-69
2023/07/05 07:44:39;;;;;;;1.30;1.10;;;22.90;66.30;;;;;;5014853;28;20207;-69
2023/07/05 07:47:06;;;;;;;1.35;1.25;;;22.90;66.30;;;;;;5013816;28;20211;-69
2023/07/05 07:49:33;;;;;;;1.30;1.17;;;22.90;66.40;;;;;;5014378;28;20196;-70
2023/07/05 07:51:59;;;;;;;1.38;1.20;;;22.90;66.50;;;;;;5013785;28;20290;-69
2023/07/05 07:54:31;;;;;;;1.38;1.27;;;22.90;66.50;;;;;;5013635;28;20297;-69
2023/07/05 07:56:57;;;;;;;1.50;1.40;;;22.90;66.60;;;;;;5013534;28;20211;-70
2023/07/05 07:59:24;;;;;;;1.40;1.30;;;22.90;66.60;;;;;;5013367;28;20199;-69
2023/07/05 08:01:50;;;;;;;1.40;1.30;;;22.90;66.60;;;;;;5000979;28;20235;-69
2023/07/05 08:04:17;;;;;;;2.22;1.55;;;22.90;66.60;;;;;;5013204;28;20656;-69
2023/07/05 08:06:50;;;;;;;1.35;1.27;;;22.90;66.70;;;;;;5017839;28;20244;-69
2023/07/05 08:09:21;;;;;;;1.50;1.40;;;22.90;66.70;;;;;;5016304;28;20192;-69
2023/07/05 08:11:48;;;;;;;1.63;1.45;;;22.90;66.70;;;;;;5018487;28;20210;-69
2023/07/05 08:14:17;;;;;;;1.40;1.17;;;22.80;66.50;;;;;;5013468;28;20255;-69
2023/07/05 08:16:44;;;;;;;1.80;1.70;;;22.90;66.60;;;;;;5020620;28;20212;-69
2023/07/05 08:19:10;;;;;;;1.25;1.15;;;22.90;66.70;;;;;;5013477;28;20230;-69
2023/07/05 08:21:36;;;;;;;1.40;1.27;;;22.90;66.70;;;;;;5013269;28;20204;-69
2023/07/05 08:24:04;;;;;;;1.42;1.30;;;22.80;66.60;;;;;;5034687;28;20203;-69
2023/07/05 08:26:29;;;;;;;1.38;1.23;;;22.80;66.70;;;;;;5013418;28;20184;-70
2023/07/05 08:28:57;;;;;;;1.40;1.30;;;22.80;66.70;;;;;;5004996;28;20203;-69
2023/07/05 08:31:23;;;;;;;1.30;1.20;;;22.80;66.70;;;;;;5011139;28;20215;-69
2023/07/05 08:33:49;;;;;;;1.38;1.27;;;22.80;66.70;;;;;;5012737;28;20195;-69
2023/07/05 08:36:15;;;;;;;2.58;1.20;;;22.80;66.80;;;;;;5012986;28;20231;-69
2023/07/05 08:38:54;;;;;;;1.15;1.15;;;22.90;66.60;;;;;;4996821;28;20681;-69
2023/07/05 08:41:41;;;;;;;1.13;1.10;;;22.80;66.40;;;;;;5012599;28;20230;-69
2023/07/05 08:44:52;;;;;;;1.48;1.38;;;22.90;66.40;;;;;;5012640;28;20616;-70
2023/07/05 08:47:28;;;;;;;1.33;1.23;;;22.90;66.50;;;;;;5012732;28;20194;-69
2023/07/05 08:50:34;;;;;;;1.35;1.25;;;22.90;66.60;;;;;;5029191;28;20187;-69
2023/07/05 08:53:12;;;;;;;1.30;1.20;;;22.90;66.60;;;;;;5001964;28;20265;-70
2023/07/05 08:55:52;;;;;;;1.00;1.00;;;22.90;66.60;;;;;;5029231;28;20613;-69
2023/07/05 08:58:27;;;;;;;0.85;0.85;;;22.90;66.70;;;;;;5012893;28;20172;-69
2023/07/05 09:01:04;;;;;;;1.05;1.05;;;22.90;66.60;;;;;;4996239;28;20204;-69
2023/07/05 09:03:31;;;;;;;1.10;1.10;;;22.90;66.40;;;;;;5012592;28;20183;-69
2023/07/05 09:06:32;;;;;;;1.48;1.38;;;22.90;66.70;;;;;;5012548;28;20177;-69
2023/07/05 09:09:25;;;;;;;1.45;1.08;;;22.90;66.40;;;;;;5012368;28;20218;-67
2023/07/05 09:12:16;;;;;;;1.52;1.25;;;22.90;67.10;;;;;;4996281;28;20208;-69
2023/07/05 09:15:22;;;;;;;2.28;1.40;;;22.90;66.60;;;;;;5012551;28;20173;-69
2023/07/05 09:17:56;;;;;;;1.13;1.02;;;22.90;66.50;;;;;;5012564;28;20196;-69
2023/07/05 09:20:57;;;;;;;1.35;1.25;;;22.90;66.60;;;;;;5012283;28;20227;-69
2023/07/05 09:23:45;;;;;;;1.17;1.10;;;22.90;66.50;;;;;;5011976;28;20195;-69
2023/07/05 09:26:33;;;;;;;1.27;1.13;;;22.90;66.50;;;;;;5012530;28;20187;-69
2023/07/05 09:29:21;;;;;;;1.60;1.25;;;22.90;66.60;;;;;;5012013;28;20568;-69
2023/07/05 09:31:49;;;;;;;1.00;1.00;;;22.90;66.50;;;;;;5011938;28;20243;-69
2023/07/05 09:34:37;;;;;;;1.30;1.20;;;23.00;67.40;;;;;;5011869;28;20238;-69
2023/07/05 09:37:15;;;;;;;1.00;1.00;;;23.00;66.50;;;;;;5011964;28;20211;-70
2023/07/05 09:40:18;;;;;;;1.58;1.10;;;23.00;66.70;;;;;;5016053;28;20216;-68
2023/07/05 09:42:54;;;;;;;0.90;0.90;;;23.00;66.50;;;;;;5027631;28;20249;-69
2023/07/05 09:45:20;;;;;;;1.20;1.10;;;23.00;66.40;;;;;;5012151;28;20271;-69
2023/07/05 09:47:50;;;;;;;1.08;0.98;;;23.00;66.40;;;;;;5019472;28;20271;-69
2023/07/05 09:50:21;;;;;;;1.33;1.23;;;23.00;66.40;;;;;;5012605;28;20219;-69
2023/07/05 09:53:34;;;;;;;1.13;1.02;;;23.00;66.40;;;;;;5011389;28;20191;-69
2023/07/05 09:56:16;;;;;;;1.38;1.10;;;23.00;66.40;;;;;;5011698;28;20222;-69
2023/07/05 09:58:44;;;;;;;1.13;1.10;;;23.00;66.60;;;;;;5028130;28;20266;-69
2023/07/05 10:01:28;;;;;;;1.10;1.00;;;23.00;66.60;;;;;;5011411;28;20262;-69
2023/07/05 10:04:00;;;;;;;1.20;0.98;;;23.00;66.50;;;;;;5004762;28;20180;-69
2023/07/05 10:06:28;;;;;;;1.27;1.17;;;23.00;66.50;;;;;;5011542;28;20298;-69
2023/07/05 10:08:59;;;;;;;1.50;1.20;;;23.00;66.50;;;;;;4994665;28;20234;-70
2023/07/05 10:11:28;;;;;;;1.33;1.00;;;23.00;66.60;;;;;;5019900;28;20594;-69
2023/07/05 10:14:06;;;;;;;0.93;0.88;;;23.00;66.70;;;;;;5011086;28;20188;-69
2023/07/05 10:16:49;;;;;;;1.77;1.02;;;23.00;66.60;;;;;;5010984;28;20594;-69
2023/07/05 10:19:30;;;;;;;1.33;1.10;;;23.00;66.50;;;;;;4994750;28;20186;-69
2023/07/05 10:22:16;;;;;;;1.50;1.17;;;23.00;66.50;;;;;;5011086;28;20211;-71
2023/07/05 10:24:47;;;;;;;1.02;0.90;;;23.00;66.50;;;;;;5010892;28;20180;-70
2023/07/05 10:27:32;;;;;;;1.23;1.13;;;23.00;66.70;;;;;;4995056;28;20196;-69
2023/07/05 10:30:05;;;;;;;1.63;0.85;;;23.00;66.70;;;;;;5006358;28;20195;-69
2023/07/05 10:32:32;;;;;;;1.52;1.15;;;23.00;66.60;;;;;;5042116;28;20255;-69
2023/07/05 10:35:00;;;;;;;0.90;0.90;;;23.00;66.70;;;;;;5025315;28;20191;-69
2023/07/05 10:37:35;;;;;;;1.05;1.02;;;23.00;66.60;;;;;;5030194;28;20227;-69
2023/07/05 10:40:08;;;;;;;0.85;0.85;;;23.00;66.70;;;;;;5030746;28;20195;-69
2023/07/05 10:42:38;;;;;;;1.80;1.10;;;23.00;66.60;;;;;;5014979;28;20631;-69
2023/07/05 10:45:05;;;;;;;1.15;1.02;;;23.00;66.50;;;;;;5023227;28;20279;-69
2023/07/05 10:47:32;;;;;;;1.27;1.17;;;23.00;66.40;;;;;;5014621;28;20195;-69
2023/07/05 10:50:06;;;;;;;1.10;1.00;;;23.00;66.50;;;;;;5028186;28;20282;-69
2023/07/05 10:52:42;;;;;;;1.23;1.13;;;23.00;66.50;;;;;;5025238;28;20222;-69
2023/07/05 10:55:21;;;;;;;1.10;1.10;;;23.00;66.30;;;;;;5014655;28;20569;-68
2023/07/05 10:58:06;;;;;;;1.27;1.17;;;23.00;66.40;;;;;;5018361;28;20207;-69
2023/07/05 11:00:39;;;;;;;1.00;1.00;;;23.00;66.30;;;;;;5008247;28;20310;-70
2023/07/05 11:03:26;;;;;;;0.98;0.98;;;23.10;66.60;;;;;;5014691;28;20187;-69
2023/07/05 11:05:58;;;;;;;1.00;1.00;;;23.10;66.50;;;;;;5014998;28;20285;-70
2023/07/05 11:08:37;;;;;;;1.00;1.00;;;23.10;66.40;;;;;;5014436;28;20180;-69
2023/07/05 11:11:35;;;;;;;1.92;1.02;;;23.10;66.50;;;;;;5015822;28;20239;-69
2023/07/05 11:14:03;;;;;;;1.25;1.15;;;23.10;66.50;;;;;;4997945;28;20192;-69
2023/07/05 11:16:31;;;;;;;1.45;0.90;;;23.00;66.40;;;;;;5035661;28;20240;-69
2023/07/05 11:19:12;;;;;;;1.00;0.90;;;23.10;66.40;;;;;;5030920;28;20237;-69
2023/07/05 11:21:44;;;;;;;1.20;1.08;;;23.10;66.40;;;;;;5030844;28;20227;-69
2023/07/05 11:24:12;;;;;;;1.10;1.10;;;23.10;66.40;;;;;;5015607;28;20196;-69
2023/07/05 11:26:45;;;;;;;1.13;1.10;;;23.10;66.40;;;;;;5015915;28;20191;-69
2023/07/05 11:29:42;;;;;;;1.33;1.23;;;23.10;66.50;;;;;;5014093;28;20207;-69
2023/07/05 11:32:08;;;;;;;1.38;1.13;;;23.00;66.30;;;;;;5013210;28;20615;-69
2023/07/05 11:34:44;;;;;;;1.40;1.30;;;23.00;66.30;;;;;;5014227;28;20188;-69
2023/07/05 11:37:10;;;;;;;1.38;1.27;;;23.00;66.30;;;;;;5014933;28;20667;-68
2023/07/05 11:39:51;;;;;;;1.00;1.00;;;23.00;66.30;;;;;;5013772;28;20203;-69
2023/07/05 11:42:24;;;;;;;1.40;1.30;;;23.00;66.30;;;;;;5013910;28;20195;-70
2023/07/05 11:45:13;;;;;;;1.38;1.20;;;23.10;66.40;;;;;;5022330;28;20723;-69
2023/07/05 11:47:38;;;;;;;1.30;1.20;;;23.10;66.50;;;;;;5013692;28;20280;-69
2023/07/05 11:50:08;;;;;;;1.40;1.30;;;23.10;66.30;;;;;;5013883;28;20271;-70
2023/07/05 11:52:42;;;;;;;1.40;1.13;;;23.10;66.40;;;;;;5013617;28;20188;-70
2023/07/05 11:55:25;;;;;;;1.73;0.90;;;23.10;66.30;;;;;;5019300;28;20188;-71
2023/07/05 11:58:08;;;;;;;1.65;1.20;;;23.10;66.20;;;;;;5014691;28;20230;-69
2023/07/05 12:00:43;;;;;;;1.67;1.00;;;23.10;66.20;;;;;;5022752;28;20210;-70
2023/07/05 12:03:21;;;;;;;1.88;1.38;;;23.10;66.20;;;;;;5013500;28;20187;-68
2023/07/05 12:06:02;;;;;;;2.58;1.30;;;23.10;66.20;;;;;;5016344;28;20558;-69
2023/07/05 12:08:46;;;;;;;1.05;1.02;;;23.10;66.10;;;;;;5016120;28;20226;-70
2023/07/05 12:11:16;;;;;;;1.48;1.38;;;23.10;66.10;;;;;;5019679;28;20285;-71
2023/07/05 12:13:42;;;;;;;1.38;1.27;;;23.10;66.10;;;;;;4997883;28;20191;-70
2023/07/05 12:16:18;;;;;;;1.38;1.10;;;23.10;66.00;;;;;;5013442;28;20204;-71
2023/07/05 12:18:43;;;;;;;2.20;1.23;;;23.10;66.00;;;;;;5013289;28;20188;-70
2023/07/05 12:21:12;;;;;;;1.55;1.45;;;23.10;66.40;;;;;;5021446;28;20258;-70
2023/07/05 12:23:39;;;;;;;1.20;1.10;;;23.10;66.20;;;;;;4996511;28;20184;-71
2023/07/05 12:26:27;;;;;;;1.58;1.27;;;23.10;66.00;;;;;;5014299;28;20203;-70
2023/07/05 12:28:53;;;;;;;1.65;1.27;;;23.10;66.10;;;;;;5013042;28;20192;-68
2023/07/05 12:31:22;;;;;;;2.65;1.48;;;23.10;66.00;;;;;;4996455;28;20297;-71
2023/07/05 12:34:00;;;;;;;3.08;1.50;;;23.10;65.90;;;;;;5031919;28;20186;-72
2023/07/05 12:36:26;;;;;;;2.53;1.90;;;23.10;66.00;;;;;;5025742;28;20204;-70
2023/07/05 12:39:08;;;;;;;1.80;1.55;;;23.10;66.10;;;;;;5013001;28;20196;-70
2023/07/05 12:41:34;;;;;;;2.95;1.60;;;23.10;66.00;;;;;;5021764;28;20296;-70
2023/07/05 12:44:04;;;;;;;1.70;1.55;;;23.10;66.00;;;;;;5015949;28;20193;-70
2023/07/05 12:46:34;;;;;;;1.80;1.45;;;23.10;65.90;;;;;;5015655;28;20188;-70
2023/07/05 12:49:23;;;;;;;2.40;1.70;;;23.10;65.90;;;;;;5012866;28;20258;-71
2023/07/05 12:51:54;;;;;;;2.55;1.75;;;23.10;66.00;;;;;;5012649;28;20220;-70
2023/07/05 12:54:21;;;;;;;3.95;2.17;;;23.10;66.40;;;;;;5012607;28;20235;-71
2023/07/05 12:56:49;;;;;;;10.20;6.75;;;23.10;66.40;;;;;;5012557;28;20216;-69
2023/07/05 12:59:34;;;;;;;7.60;5.30;;;23.10;66.00;;;;;;5020775;28;20192;-70
2023/07/05 13:02:04;;;;;;;9.98;6.63;;;23.10;65.90;;;;;;5025755;28;20203;-70
2023/07/05 13:04:35;;;;;;;9.35;5.45;;;23.10;66.00;;;;;;5023604;28;20198;-70
2023/07/05 13:07:05;;;;;;;10.50;5.72;;;23.10;65.70;;;;;;5029910;28;20227;-71
2023/07/05 13:09:35;;;;;;;10.38;6.32;;;23.10;66.00;;;;;;5020130;28;20290;-71